createdAt,value
2022-09-13T00:02:18.557Z,95485.61
2022-09-13T00:08:00.398Z,95478.33
2022-09-13T00:13:36.994Z,95471.60
2022-09-13T00:19:08.987Z,95467.27
2022-09-13T00:24:48.802Z,95474.34
2022-09-13T00:30:22.549Z,95472.36
2022-09-13T00:35:57.282Z,95470.60
2022-09-13T00:41:30.895Z,95464.69
2022-09-13T00:47:39.642Z,95458.71
2022-09-13T00:53:16.853Z,95469.30
2022-09-13T00:56:11.662Z,95467.47
2022-09-13T00:59:02.240Z,95465.09
2022-09-13T01:01:54.220Z,95470.19
2022-09-13T01:04:46.588Z,95459.95
2022-09-13T01:07:38.003Z,95475.59
2022-09-13T01:13:17.140Z,95467.09
2022-09-13T01:18:56.604Z,95462.90
2022-09-13T01:25:43.418Z,95465.20
2022-09-13T01:31:38.718Z,95472.36
2022-09-13T01:37:39.664Z,95474.95
2022-09-13T01:40:35.701Z,95474.42
2022-09-13T01:46:16.206Z,95481.83
2022-09-13T01:51:59.840Z,95472.62
2022-09-13T01:57:34.354Z,95477.32
2022-09-13T02:03:11.353Z,95474.20
2022-09-13T02:08:52.401Z,95479.67
2022-09-13T02:11:42.501Z,95481.14
2022-09-13T02:20:04.097Z,95489.14
2022-09-13T02:25:44.514Z,95479.57
2022-09-13T02:31:15.636Z,95490.19
2022-09-13T02:36:49.264Z,95488.72
2022-09-13T02:42:20.561Z,95490.47
2022-09-13T02:45:10.111Z,95488.99
2022-09-13T02:48:00.476Z,95485.97
2022-09-13T02:50:52.651Z,95480.17
2022-09-13T02:56:33.097Z,95474.86
2022-09-13T02:59:22.999Z,95465.39
2022-09-13T03:04:59.496Z,95458.81
2022-09-13T03:10:30.920Z,95468.38
2022-09-13T03:16:32.623Z,95473.98
2022-09-13T03:22:20.251Z,95465.78
2022-09-13T03:25:12.998Z,95463.25
2022-09-13T03:30:53.419Z,95465.35
2022-09-13T03:36:39.536Z,95464.63
2022-09-13T03:42:17.601Z,95470.82
2022-09-13T03:48:12.859Z,95473.94
2022-09-13T03:51:01.347Z,95481.98
2022-09-13T03:56:38.398Z,95474.42
2022-09-13T04:02:13.759Z,95474.50
2022-09-13T04:05:02.146Z,95477.45
2022-09-13T04:07:52.892Z,95473.69
2022-09-13T04:13:29.907Z,95474.29
2022-09-13T04:19:04.886Z,95472.73
2022-09-13T04:24:38.791Z,95481.88
2022-09-13T04:27:27.310Z,95488.30
2022-09-13T04:36:10.212Z,95482.83
2022-09-13T04:39:00.331Z,95492.09
2022-09-13T04:41:52.068Z,95486.20
2022-09-13T04:44:40.632Z,95481.16
2022-09-13T04:50:12.456Z,95477.84
2022-09-13T04:56:02.247Z,95474.55
2022-09-13T05:01:37.171Z,95493.34
2022-09-13T05:07:13.567Z,95495.98
2022-09-13T05:12:42.741Z,95502.48
2022-09-13T05:18:16.840Z,95509.47
2022-09-13T05:23:56.056Z,95515.14
2022-09-13T05:26:44.990Z,95512.13
2022-09-13T05:35:09.379Z,95498.77
2022-09-13T05:40:46.618Z,95506.66
2022-09-13T05:43:36.899Z,95502.98
2022-09-13T05:49:04.892Z,95493.91
2022-09-13T05:51:55.667Z,95495.91
2022-09-13T05:57:32.777Z,95486.83
2022-09-13T06:00:21.063Z,95488.20
2022-09-13T06:05:59.193Z,95497.80
2022-09-13T06:11:34.750Z,95493.34
2022-09-13T06:17:12.204Z,95481.25
2022-09-13T06:22:47.587Z,95476.53
2022-09-13T06:28:27.155Z,95467.66
2022-09-13T06:34:08.450Z,95466.56
2022-09-13T06:39:38.254Z,95451.66
2022-09-13T06:45:10.172Z,95467.35
2022-09-13T06:50:45.601Z,95454.64
2022-09-13T06:56:15.775Z,95456.31
2022-09-13T07:01:49.385Z,95459.52
2022-09-13T07:07:18.325Z,95444.67
2022-09-13T07:12:55.676Z,95445.72
2022-09-13T07:18:33.411Z,95434.85
2022-09-13T07:21:22.116Z,95438.88
2022-09-13T07:26:58.784Z,95429.23
2022-09-13T07:29:47.862Z,95427.31
2022-09-13T07:35:22.458Z,95429.10
2022-09-13T07:43:44.037Z,95414.82
2022-09-13T07:49:21.886Z,95428.92
2022-09-13T07:52:12.026Z,95445.91
2022-09-13T07:55:00.510Z,95445.45
2022-09-13T08:00:32.165Z,95441.72
2022-09-13T08:03:22.423Z,95445.50
2022-09-13T08:09:01.001Z,95433.70
2022-09-13T08:11:52.155Z,95432.07
2022-09-13T08:14:41.618Z,95435.87
2022-09-13T08:20:19.099Z,95434.39
2022-09-13T08:23:07.965Z,95439.39
2022-09-13T08:26:03.204Z,95430.35
2022-09-13T08:28:56.808Z,95426.91
2022-09-13T08:37:22.021Z,95428.84
2022-09-13T08:43:01.029Z,95431.98
2022-09-13T08:51:30.185Z,95426.15
2022-09-13T09:00:01.603Z,95425.55
2022-09-13T09:05:40.236Z,95431.44
2022-09-13T09:11:15.540Z,95424.12
2022-09-13T09:19:58.226Z,95413.89
2022-09-13T09:25:38.240Z,95417.25
2022-09-13T09:31:22.661Z,95407.81
2022-09-13T09:39:47.510Z,95407.56
2022-09-13T09:45:29.625Z,95408.60
2022-09-13T09:54:01.826Z,95405.34
2022-09-13T09:59:42.713Z,95400.47
2022-09-13T10:02:31.345Z,95400.47
2022-09-13T10:08:09.294Z,95392.21
2022-09-13T10:10:59.910Z,95378.41
2022-09-13T10:14:01.823Z,95382.60
2022-09-13T10:16:50.150Z,95376.08
2022-09-13T10:22:30.040Z,95371.02
2022-09-13T10:28:13.032Z,95362.46
2022-09-13T10:33:50.943Z,95362.73
2022-09-13T10:39:33.943Z,95358.31
2022-09-13T10:45:22.291Z,95359.45
2022-09-13T10:51:32.344Z,95352.66
2022-09-13T10:57:02.023Z,95349.68
2022-09-13T11:02:58.705Z,95338.50
2022-09-13T11:08:41.235Z,95334.60
2022-09-13T11:14:48.155Z,95317.91
2022-09-13T11:17:45.525Z,95327.38
2022-09-13T11:20:39.171Z,95312.31
2022-09-13T11:23:46.368Z,95318.95
2022-09-13T11:29:38.877Z,95311.67
2022-09-13T11:35:31.914Z,95300.52
2022-09-13T11:41:20.064Z,95280.81
2022-09-13T11:45:04.071Z,95277.77
2022-09-13T11:48:04.305Z,95279.79
2022-09-13T11:53:53.755Z,95282.17
2022-09-13T11:59:29.627Z,95277.79
2022-09-13T12:02:24.309Z,95276.55
2022-09-13T12:08:08.113Z,95268.98
2022-09-13T12:10:58.612Z,95273.48
2022-09-13T12:13:49.991Z,95269.01
2022-09-13T12:19:28.874Z,95269.00
2022-09-13T12:22:19.675Z,95259.23
2022-09-13T12:28:02.702Z,95243.53
2022-09-13T12:33:41.682Z,95236.48
2022-09-13T12:39:40.836Z,95232.45
2022-09-13T12:42:53.393Z,95227.37
2022-09-13T12:48:55.759Z,95224.33
2022-09-13T12:51:56.995Z,95220.92
2022-09-13T12:58:13.831Z,95223.98
2022-09-13T13:01:09.762Z,95230.95
2022-09-13T13:06:42.651Z,95221.66
2022-09-13T13:09:38.287Z,95224.61
2022-09-13T13:12:32.625Z,95225.06
2022-09-13T13:15:56.644Z,95224.91
2022-09-13T13:21:39.106Z,95221.52
2022-09-13T13:24:51.491Z,95218.42
2022-09-13T13:27:48.090Z,95219.20
2022-09-13T13:30:55.018Z,95222.78
2022-09-13T13:33:50.846Z,95220.95
2022-09-13T13:36:48.655Z,95220.78
2022-09-13T13:39:39.732Z,95218.30
2022-09-13T13:45:22.092Z,95212.39
2022-09-13T13:51:19.316Z,95215.67
2022-09-13T13:57:09.729Z,95214.13
2022-09-13T14:02:44.417Z,95207.89
2022-09-13T14:08:36.456Z,95195.97
2022-09-13T14:14:25.674Z,95191.63
2022-09-13T14:17:31.535Z,95187.89
2022-09-13T14:20:21.634Z,95188.36
2022-09-13T14:23:19.537Z,95176.30
2022-09-13T14:28:54.346Z,95168.07
2022-09-13T14:34:32.043Z,95159.85
2022-09-13T14:37:22.582Z,95157.06
2022-09-13T14:40:21.924Z,95157.24
2022-09-13T14:46:07.571Z,95148.23
2022-09-13T14:54:36.599Z,95154.19
2022-09-13T14:57:31.284Z,95151.07
2022-09-13T15:00:22.043Z,95153.25
2022-09-13T15:03:15.746Z,95158.48
2022-09-13T15:08:53.602Z,95166.49
2022-09-13T15:14:32.715Z,95160.86
2022-09-13T15:20:25.023Z,95166.11
2022-09-13T15:26:31.980Z,95160.91
2022-09-13T15:32:27.236Z,95152.66
2022-09-13T15:38:22.696Z,95153.03
2022-09-13T15:44:00.579Z,95134.53
2022-09-13T15:46:51.780Z,95136.03
2022-09-13T15:52:23.819Z,95137.73
2022-09-13T15:57:56.306Z,95138.66
2022-09-13T16:03:27.947Z,95142.00
2022-09-13T16:09:01.403Z,95137.28
2022-09-13T16:11:51.018Z,95135.78
2022-09-13T16:17:26.899Z,95142.97
2022-09-13T16:23:05.181Z,95130.17
2022-09-13T16:28:41.341Z,95126.22
2022-09-13T16:31:29.879Z,95121.64
2022-09-13T16:34:18.788Z,95108.00
2022-09-13T16:39:59.619Z,95105.94
2022-09-13T16:42:48.245Z,95104.30
2022-09-13T16:48:35.301Z,95102.09
2022-09-13T16:54:05.088Z,95106.14
2022-09-13T16:59:50.762Z,95097.75
2022-09-13T17:02:38.796Z,95099.03
2022-09-13T17:08:15.478Z,95107.47
2022-09-13T17:13:54.774Z,95110.56
2022-09-13T17:16:46.206Z,95107.16
2022-09-13T17:19:35.135Z,95104.27
2022-09-13T17:25:25.419Z,95105.65
2022-09-13T17:31:02.215Z,95104.98
2022-09-13T17:36:37.475Z,95096.47
2022-09-13T17:39:25.965Z,95108.80
2022-09-13T17:42:22.985Z,95115.38
2022-09-13T17:45:13.187Z,95115.07
2022-09-13T17:50:41.770Z,95122.00
2022-09-13T17:56:33.675Z,95132.77
2022-09-13T18:02:12.279Z,95128.44
2022-09-13T18:05:05.309Z,95129.16
2022-09-13T18:10:53.567Z,95126.70
2022-09-13T18:13:22.625Z,95122.91
2022-09-13T18:16:16.018Z,95135.09
2022-09-13T18:21:51.236Z,95137.25
2022-09-13T18:24:42.070Z,95133.11
2022-09-13T18:30:18.904Z,95132.09
2022-09-13T18:33:10.921Z,95131.56
2022-09-13T18:38:47.718Z,95137.63
2022-09-13T18:41:37.460Z,95136.74
2022-09-13T18:47:16.640Z,95126.73
2022-09-13T18:52:51.651Z,95127.92
2022-09-13T18:55:40.145Z,95132.08
2022-09-13T19:01:22.698Z,95136.05
2022-09-13T19:06:56.791Z,95128.52
2022-09-13T19:15:14.461Z,95131.05
2022-09-13T19:20:47.943Z,95130.69
2022-09-13T19:23:57.887Z,95132.04
2022-09-13T19:32:04.360Z,95147.92
2022-09-13T19:37:41.767Z,95142.89
2022-09-13T19:43:32.121Z,95135.97
2022-09-13T19:49:13.120Z,95146.86
2022-09-13T19:54:40.833Z,95156.72
2022-09-13T20:00:19.579Z,95149.22
2022-09-13T20:03:08.620Z,95149.86
2022-09-13T20:09:04.040Z,95141.98
2022-09-13T20:14:40.495Z,95145.63
2022-09-13T20:20:33.099Z,95145.60
2022-09-13T20:26:15.800Z,95150.52
2022-09-13T20:31:55.307Z,95157.86
2022-09-13T20:40:24.330Z,95153.50
2022-09-13T20:46:02.349Z,95155.78
2022-09-13T20:51:35.044Z,95151.17
2022-09-13T20:57:12.034Z,95159.80
2022-09-13T21:02:46.835Z,95169.36
2022-09-13T21:08:42.154Z,95165.45
2022-09-13T21:14:22.952Z,95168.70
2022-09-13T21:17:12.817Z,95162.02
2022-09-13T21:23:02.398Z,95154.17
2022-09-13T21:25:51.066Z,95151.11
2022-09-13T21:31:31.898Z,95144.14
2022-09-13T21:37:04.735Z,95151.17
2022-09-13T21:42:58.114Z,95127.66
2022-09-13T21:48:35.002Z,95133.06
2022-09-13T21:54:15.286Z,95132.88
2022-09-13T21:59:45.480Z,95133.90
2022-09-13T22:02:33.902Z,95125.75
2022-09-13T22:05:22.106Z,95117.69
2022-09-13T22:08:10.568Z,95118.48
2022-09-13T22:13:47.555Z,95105.57
2022-09-13T22:19:24.079Z,95123.81
2022-09-13T22:24:54.311Z,95111.96
2022-09-13T22:27:43.394Z,95105.70
2022-09-13T22:33:17.143Z,95089.40
2022-09-13T22:38:54.616Z,95092.92
2022-09-13T22:44:29.729Z,95093.02
2022-09-13T22:50:06.788Z,95084.30
2022-09-13T22:55:41.020Z,95081.96
2022-09-13T23:01:19.393Z,95085.45
2022-09-13T23:04:08.014Z,95081.23
2022-09-13T23:12:30.698Z,95087.87
2022-09-13T23:15:19.822Z,95094.21
2022-09-13T23:21:00.410Z,95096.94
2022-09-13T23:23:49.405Z,95092.25
2022-09-13T23:29:26.180Z,95082.39
2022-09-13T23:32:15.247Z,95093.82
2022-09-13T23:37:43.857Z,95085.55
2022-09-13T23:43:21.033Z,95079.33
2022-09-13T23:46:11.131Z,95074.45
2022-09-13T23:49:00.234Z,95076.44
2022-09-13T23:54:37.086Z,95070.11
